createdAt,value
2018-02-16T00:00:04.857Z,99.99
2018-02-16T00:01:04.831Z,99.99
2018-02-16T00:02:04.797Z,99.99
2018-02-16T00:03:04.807Z,99.99
2018-02-16T00:04:04.740Z,99.99
2018-02-16T00:05:04.711Z,99.99
2018-02-16T00:06:04.680Z,99.99
2018-02-16T00:07:04.637Z,99.99
2018-02-16T00:08:04.611Z,99.99
2018-02-16T00:09:04.613Z,99.99
2018-02-16T00:10:04.546Z,99.99
2018-02-16T00:11:04.564Z,99.99
2018-02-16T00:12:04.495Z,99.99
2018-02-16T00:13:04.455Z,99.99
2018-02-16T00:14:04.462Z,99.99
2018-02-16T00:15:04.390Z,99.99
2018-02-16T00:16:04.360Z,99.99
2018-02-16T00:17:04.330Z,99.99
2018-02-16T00:18:04.322Z,99.99
2018-02-16T00:19:04.268Z,99.99
2018-02-16T00:20:04.266Z,99.99
2018-02-16T00:21:04.207Z,99.99
2018-02-16T00:22:04.180Z,99.99
2018-02-16T00:23:04.147Z,99.99
2018-02-16T00:24:04.121Z,99.99
2018-02-16T00:25:04.128Z,99.99
2018-02-16T00:26:04.053Z,99.99
2018-02-16T00:27:04.025Z,99.99
2018-02-16T00:28:03.990Z,99.99
2018-02-16T00:29:03.965Z,99.99
2018-02-16T00:30:03.933Z,99.99
2018-02-16T00:31:03.930Z,99.99
2018-02-16T00:32:03.869Z,99.99
2018-02-16T00:33:03.850Z,99.99
2018-02-16T00:34:03.805Z,99.99
2018-02-16T00:35:03.772Z,99.99
2018-02-16T00:36:03.787Z,99.99
2018-02-16T00:37:03.719Z,99.99
2018-02-16T00:38:03.692Z,99.99
2018-02-16T00:39:03.653Z,99.99
2018-02-16T00:40:03.624Z,99.99
2018-02-16T00:41:03.592Z,99.99
2018-02-16T00:42:03.587Z,99.99
2018-02-16T00:43:03.564Z,99.99
2018-02-16T00:44:03.500Z,99.99
2018-02-16T00:45:03.467Z,99.99
2018-02-16T00:46:03.439Z,99.99
2018-02-16T00:47:03.444Z,99.99
2018-02-16T00:48:03.376Z,99.99
2018-02-16T00:49:03.347Z,99.99
2018-02-16T00:50:03.316Z,99.99
2018-02-16T00:51:03.288Z,99.99
2018-02-16T00:52:03.250Z,99.99
2018-02-16T00:53:03.251Z,99.99
2018-02-16T00:54:03.187Z,99.99
2018-02-16T00:55:03.162Z,99.99
2018-02-16T00:56:03.126Z,99.99
2018-02-16T00:57:03.103Z,99.99
2018-02-16T00:58:03.105Z,99.99
2018-02-16T00:59:03.039Z,99.99
2018-02-16T01:00:03.002Z,99.99
2018-02-16T01:01:02.973Z,99.99
2018-02-16T01:02:02.946Z,99.99
2018-02-16T01:03:02.911Z,99.99
2018-02-16T01:04:02.910Z,99.99
2018-02-16T01:05:02.889Z,99.99
2018-02-16T01:06:02.821Z,99.99
2018-02-16T01:07:02.802Z,99.99
2018-02-16T01:08:02.758Z,99.99
2018-02-16T01:09:02.761Z,99.99
2018-02-16T01:10:02.698Z,99.99
2018-02-16T01:11:02.670Z,99.99
2018-02-16T01:12:02.637Z,99.99
2018-02-16T01:13:02.609Z,99.99
2018-02-16T01:14:02.584Z,99.99
2018-02-16T01:15:02.572Z,99.99
2018-02-16T01:16:02.512Z,99.99
2018-02-16T01:17:02.485Z,99.99
2018-02-16T01:18:02.454Z,99.99
2018-02-16T01:19:02.431Z,99.99
2018-02-16T01:20:02.427Z,99.99
2018-02-16T01:21:02.359Z,99.99
2018-02-16T01:22:02.336Z,99.99
2018-02-16T01:23:02.300Z,99.99
2018-02-16T01:24:02.267Z,99.99
2018-02-16T01:25:02.234Z,99.99
2018-02-16T01:26:02.230Z,99.99
2018-02-16T01:27:02.173Z,99.99
2018-02-16T01:28:02.158Z,99.99
2018-02-16T01:29:02.113Z,99.99
2018-02-16T01:30:02.087Z,99.99
2018-02-16T01:31:02.096Z,99.99
2018-02-16T01:32:02.023Z,99.99
2018-02-16T01:33:01.993Z,99.99
2018-02-16T01:34:01.963Z,99.99
2018-02-16T01:35:01.931Z,99.99
2018-02-16T01:36:01.900Z,99.99
2018-02-16T01:37:01.915Z,99.99
2018-02-16T01:38:01.933Z,99.99
2018-02-16T01:39:01.808Z,99.99
2018-02-16T01:40:01.781Z,99.99
2018-02-16T01:41:01.751Z,99.99
2018-02-16T01:42:01.716Z,99.99
2018-02-16T01:43:01.708Z,99.99
2018-02-16T01:44:01.655Z,99.99
2018-02-16T01:45:01.632Z,99.99
2018-02-16T01:46:01.600Z,99.99
2018-02-16T01:47:01.558Z,99.99
2018-02-16T01:48:01.556Z,99.99
2018-02-16T01:49:01.498Z,99.99
2018-02-16T01:50:01.470Z,99.99
2018-02-16T01:51:01.443Z,99.99
2018-02-16T01:52:01.408Z,99.99
2018-02-16T01:53:01.404Z,99.99
2018-02-16T01:54:01.349Z,99.99
2018-02-16T01:55:01.314Z,99.99
2018-02-16T01:56:01.285Z,99.99
2018-02-16T01:57:01.255Z,99.99
2018-02-16T01:58:01.262Z,99.99
2018-02-16T01:59:01.196Z,99.99
2018-02-16T02:00:01.170Z,99.99
2018-02-16T02:01:01.133Z,99.99
2018-02-16T02:02:01.102Z,99.99
2018-02-16T02:03:01.100Z,99.99
2018-02-16T02:04:01.048Z,99.99
2018-02-16T02:05:01.013Z,99.99
2018-02-16T02:06:00.978Z,99.99
2018-02-16T02:07:00.972Z,99.99
2018-02-16T02:08:00.945Z,99.99
2018-02-16T02:09:00.891Z,99.99
2018-02-16T02:10:00.855Z,99.99
2018-02-16T02:11:00.829Z,99.99
2018-02-16T02:12:00.823Z,99.99
2018-02-16T02:13:00.803Z,99.99
2018-02-16T02:14:00.740Z,99.99
2018-02-16T02:15:00.703Z,99.99
2018-02-16T02:16:00.676Z,99.99
2018-02-16T02:17:00.644Z,99.99
2018-02-16T02:18:00.646Z,99.99
2018-02-16T02:19:00.583Z,99.99
2018-02-16T02:20:00.563Z,99.99
2018-02-16T02:21:00.523Z,99.99
2018-02-16T02:22:00.492Z,99.99
2018-02-16T02:23:00.494Z,99.99
2018-02-16T02:24:00.428Z,99.99
2018-02-16T02:25:00.408Z,99.99
2018-02-16T02:26:00.372Z,99.99
2018-02-16T02:27:00.339Z,99.99
2018-02-16T02:28:00.342Z,99.99
2018-02-16T02:29:00.277Z,99.99
2018-02-16T02:30:00.246Z,99.99
2018-02-16T02:31:00.217Z,99.99
2018-02-16T02:32:00.187Z,99.99
2018-02-16T02:33:00.180Z,99.99
2018-02-16T02:34:00.126Z,99.99
2018-02-16T02:35:00.096Z,99.99
2018-02-16T02:36:00.065Z,99.99
2018-02-16T02:37:00.036Z,99.99
2018-02-16T02:38:00.030Z,99.99
2018-02-16T02:38:59.973Z,99.99
2018-02-16T02:39:59.948Z,99.99
2018-02-16T02:40:59.910Z,99.99
2018-02-16T02:41:59.881Z,99.99
2018-02-16T02:42:59.878Z,99.99
2018-02-16T02:43:59.815Z,99.99
2018-02-16T02:44:59.790Z,99.99
2018-02-16T02:45:59.765Z,99.99
2018-02-16T02:46:59.735Z,99.99
2018-02-16T02:47:59.721Z,99.99
2018-02-16T02:48:59.666Z,99.99
2018-02-16T02:49:59.636Z,99.99
2018-02-16T02:50:59.607Z,99.99
2018-02-16T02:51:59.579Z,99.99
2018-02-16T02:52:59.576Z,99.99
2018-02-16T02:53:59.522Z,99.99
2018-02-16T02:54:59.491Z,99.99
2018-02-16T02:55:59.456Z,99.99
2018-02-16T02:56:59.424Z,99.99
2018-02-16T02:57:59.424Z,99.99
2018-02-16T02:58:59.372Z,99.99
2018-02-16T02:59:59.333Z,99.99
2018-02-16T03:00:59.310Z,99.99
2018-02-16T03:01:59.274Z,99.99
2018-02-16T03:02:59.268Z,99.99
2018-02-16T03:03:59.222Z,99.99
2018-02-16T03:04:59.209Z,99.99
2018-02-16T03:05:59.157Z,99.99
2018-02-16T03:06:59.121Z,99.99
2018-02-16T03:07:59.119Z,99.99
2018-02-16T03:08:59.068Z,99.99
2018-02-16T03:09:59.034Z,99.99
2018-02-16T03:10:59.010Z,99.99
2018-02-16T03:11:58.973Z,99.99
2018-02-16T03:12:58.967Z,99.99
2018-02-16T03:13:58.915Z,99.99
2018-02-16T03:14:58.878Z,99.99
2018-02-16T03:15:58.849Z,99.99
2018-02-16T03:16:58.844Z,99.99
2018-02-16T03:17:58.793Z,99.99
2018-02-16T03:18:58.757Z,99.99
2018-02-16T03:19:58.734Z,99.99
2018-02-16T03:20:58.699Z,99.99
2018-02-16T03:21:58.693Z,99.99
2018-02-16T03:22:58.633Z,99.99
2018-02-16T03:23:58.610Z,99.99
2018-02-16T03:24:58.575Z,99.99
2018-02-16T03:25:58.548Z,99.99
2018-02-16T03:26:58.535Z,99.99
2018-02-16T03:27:58.482Z,99.99
2018-02-16T03:28:58.453Z,99.99
2018-02-16T03:29:58.420Z,99.99
2018-02-16T03:30:58.389Z,99.99
2018-02-16T03:31:58.388Z,99.99
2018-02-16T03:32:58.330Z,99.99
2018-02-16T03:33:58.299Z,99.99
2018-02-16T03:34:58.267Z,99.99
2018-02-16T03:35:58.240Z,99.99
2018-02-16T03:36:58.236Z,99.99
2018-02-16T03:37:58.182Z,99.99
2018-02-16T03:38:58.148Z,99.99
2018-02-16T03:39:58.114Z,99.99
2018-02-16T03:40:58.091Z,99.99
2018-02-16T03:41:58.086Z,99.99
2018-02-16T03:42:58.025Z,99.99
2018-02-16T03:43:58.000Z,99.99
2018-02-16T03:44:57.966Z,99.99
2018-02-16T03:45:57.934Z,99.99
2018-02-16T03:46:57.932Z,99.99
2018-02-16T03:47:57.878Z,99.99
2018-02-16T03:48:57.844Z,99.99
2018-02-16T03:49:57.814Z,99.99
2018-02-16T03:50:57.810Z,99.99
2018-02-16T03:51:57.789Z,99.99
2018-02-16T03:52:57.722Z,99.99
2018-02-16T03:53:57.688Z,99.99
2018-02-16T03:54:57.661Z,99.99
2018-02-16T03:55:57.626Z,99.99
2018-02-16T03:56:57.626Z,99.99
2018-02-16T03:57:57.566Z,99.99
2018-02-16T03:58:57.536Z,99.99
2018-02-16T03:59:57.510Z,99.99
2018-02-16T04:00:57.487Z,99.99
2018-02-16T04:01:57.486Z,99.99
2018-02-16T04:02:57.416Z,99.99
2018-02-16T04:03:57.386Z,99.99
2018-02-16T04:04:57.367Z,99.99
2018-02-16T04:05:57.330Z,99.99
2018-02-16T04:06:57.329Z,99.99
2018-02-16T04:07:57.259Z,99.99
2018-02-16T04:08:57.231Z,99.99
2018-02-16T04:09:57.202Z,99.99
2018-02-16T04:10:57.168Z,99.99
2018-02-16T04:11:57.166Z,99.99
2018-02-16T04:12:57.112Z,99.99
2018-02-16T04:13:57.077Z,99.99
2018-02-16T04:14:57.046Z,99.99
2018-02-16T04:15:57.017Z,99.99
2018-02-16T04:16:57.009Z,99.99
2018-02-16T04:17:56.967Z,99.99
2018-02-16T04:18:56.920Z,99.99
2018-02-16T04:19:56.893Z,99.99
2018-02-16T04:20:56.861Z,99.99
2018-02-16T04:21:56.915Z,99.99
2018-02-16T04:22:56.806Z,99.99
2018-02-16T04:23:56.773Z,99.99
2018-02-16T04:24:56.732Z,99.99
2018-02-16T04:25:56.704Z,99.99
2018-02-16T04:26:56.701Z,99.99
2018-02-16T04:27:56.642Z,99.99
2018-02-16T04:28:56.620Z,99.99
2018-02-16T04:29:56.583Z,99.99
2018-02-16T04:30:56.555Z,99.99
2018-02-16T04:31:56.552Z,99.99
2018-02-16T04:32:56.488Z,99.99
2018-02-16T04:33:56.457Z,99.99
2018-02-16T04:34:56.437Z,99.99
2018-02-16T04:35:56.393Z,99.99
2018-02-16T04:36:56.423Z,99.99
2018-02-16T04:37:56.355Z,99.99
2018-02-16T04:38:56.326Z,99.99
2018-02-16T04:39:56.294Z,99.99
2018-02-16T04:40:56.262Z,99.99
2018-02-16T04:41:56.273Z,99.99
2018-02-16T04:42:56.206Z,99.99
2018-02-16T04:43:56.174Z,99.99
2018-02-16T04:44:56.137Z,99.99
2018-02-16T04:45:56.107Z,99.99
2018-02-16T04:46:56.106Z,99.99
2018-02-16T04:47:56.043Z,99.99
2018-02-16T04:48:56.018Z,99.99
2018-02-16T04:49:55.981Z,99.99
2018-02-16T04:50:55.952Z,99.99
2018-02-16T04:51:55.942Z,99.99
2018-02-16T04:52:55.883Z,99.99
2018-02-16T04:53:55.852Z,99.99
2018-02-16T04:54:55.830Z,99.99
2018-02-16T04:55:56.299Z,99.99
2018-02-16T04:56:55.783Z,99.99
2018-02-16T04:57:55.730Z,99.99
2018-02-16T04:58:55.697Z,99.99
2018-02-16T04:59:55.666Z,99.99
2018-02-16T05:00:55.646Z,99.99
2018-02-16T05:01:55.657Z,99.99
2018-02-16T05:02:55.579Z,99.99
2018-02-16T05:03:55.542Z,99.99
2018-02-16T05:04:55.509Z,99.99
2018-02-16T05:05:55.477Z,99.99
2018-02-16T05:06:55.469Z,99.99
2018-02-16T05:07:55.421Z,99.99
2018-02-16T05:08:55.380Z,99.99
2018-02-16T05:09:55.353Z,99.99
2018-02-16T05:10:55.321Z,99.99
2018-02-16T05:11:55.317Z,99.99
2018-02-16T05:12:55.261Z,99.99
2018-02-16T05:13:55.224Z,99.99
2018-02-16T05:14:55.197Z,99.99
2018-02-16T05:15:55.165Z,99.99
2018-02-16T05:16:55.443Z,99.99
2018-02-16T05:17:55.097Z,99.99
2018-02-16T05:18:55.072Z,99.99
2018-02-16T05:19:55.035Z,99.99
2018-02-16T05:20:55.015Z,99.99
2018-02-16T05:21:55.001Z,99.99
2018-02-16T05:22:54.948Z,99.99
2018-02-16T05:23:54.933Z,99.99
2018-02-16T05:24:54.879Z,99.99
2018-02-16T05:25:54.842Z,99.99
2018-02-16T05:26:54.842Z,99.99
2018-02-16T05:27:54.777Z,99.99
2018-02-16T05:28:54.754Z,99.99
2018-02-16T05:29:54.723Z,99.99
2018-02-16T05:30:54.687Z,99.99
2018-02-16T05:31:54.703Z,99.99
2018-02-16T05:32:54.629Z,99.99
2018-02-16T05:33:54.591Z,99.99
2018-02-16T05:34:54.578Z,99.99
2018-02-16T05:35:54.538Z,99.99
2018-02-16T05:36:54.524Z,99.99
2018-02-16T05:37:54.464Z,99.99
2018-02-16T05:38:54.431Z,99.99
2018-02-16T05:39:54.398Z,99.99
2018-02-16T05:40:54.369Z,99.99
2018-02-16T05:41:54.364Z,99.99
2018-02-16T05:42:54.318Z,99.99
2018-02-16T05:43:54.282Z,99.99
2018-02-16T05:44:54.248Z,99.99
2018-02-16T05:45:54.235Z,99.99
2018-02-16T05:46:54.174Z,99.99
2018-02-16T05:47:54.148Z,99.99
2018-02-16T05:48:54.167Z,99.99
2018-02-16T05:49:54.086Z,99.99
2018-02-16T05:50:54.074Z,99.99
2018-02-16T05:51:54.024Z,99.99
2018-02-16T05:52:53.993Z,99.99
2018-02-16T05:53:53.956Z,99.99
2018-02-16T05:54:53.924Z,99.99
2018-02-16T05:55:53.941Z,99.99
2018-02-16T05:56:53.862Z,99.99
2018-02-16T05:57:53.829Z,99.99
2018-02-16T05:58:53.794Z,99.99
2018-02-16T05:59:53.790Z,99.99
2018-02-16T06:00:53.761Z,99.99
2018-02-16T06:01:53.702Z,99.99
2018-02-16T06:02:53.679Z,99.99
2018-02-16T06:03:53.642Z,99.99
2018-02-16T06:04:53.613Z,99.99
2018-02-16T06:05:53.600Z,99.99
2018-02-16T06:06:53.540Z,99.99
2018-02-16T06:07:53.508Z,99.99
2018-02-16T06:08:53.489Z,99.99
2018-02-16T06:09:53.452Z,99.99
2018-02-16T06:10:53.454Z,99.99
2018-02-16T06:11:53.379Z,99.99
2018-02-16T06:12:53.349Z,99.99
2018-02-16T06:13:53.319Z,99.99
2018-02-16T06:14:53.290Z,99.99
2018-02-16T06:15:53.254Z,99.99
2018-02-16T06:16:53.282Z,99.99
2018-02-16T06:17:53.190Z,99.99
2018-02-16T06:18:53.156Z,99.99
2018-02-16T06:19:53.137Z,99.99
2018-02-16T06:20:53.105Z,99.99
2018-02-16T06:21:53.145Z,99.99
2018-02-16T06:22:53.025Z,99.99
2018-02-16T06:23:53.002Z,99.99
2018-02-16T06:24:52.970Z,99.99
2018-02-16T06:25:53.017Z,99.99
2018-02-16T06:26:52.903Z,99.99
2018-02-16T06:27:52.881Z,99.99
2018-02-16T06:28:52.843Z,99.99
2018-02-16T06:29:52.809Z,99.99
2018-02-16T06:30:52.806Z,99.99
2018-02-16T06:31:52.765Z,99.99
2018-02-16T06:32:52.714Z,99.99
2018-02-16T06:33:52.681Z,99.99
2018-02-16T06:34:52.647Z,99.99
2018-02-16T06:35:52.648Z,99.99
2018-02-16T06:36:52.594Z,99.99
2018-02-16T06:37:52.549Z,99.99
2018-02-16T06:38:52.522Z,99.99
2018-02-16T06:39:52.486Z,99.99
2018-02-16T06:40:52.483Z,99.99
2018-02-16T06:41:52.426Z,99.99
2018-02-16T06:42:52.392Z,99.99
2018-02-16T06:43:52.363Z,99.99
2018-02-16T06:44:52.328Z,99.99
2018-02-16T06:45:52.323Z,99.99
2018-02-16T06:46:52.266Z,99.99
2018-02-16T06:47:52.240Z,99.99
2018-02-16T06:48:52.207Z,99.99
2018-02-16T06:49:52.178Z,99.99
2018-02-16T06:50:52.164Z,99.99
2018-02-16T06:51:52.103Z,99.99
2018-02-16T06:52:52.075Z,99.99
2018-02-16T06:53:52.049Z,99.99
2018-02-16T06:54:52.010Z,99.99
2018-02-16T06:55:52.001Z,99.99
2018-02-16T06:56:51.948Z,99.99
2018-02-16T06:57:51.913Z,99.99
2018-02-16T06:58:51.880Z,99.99
2018-02-16T06:59:51.852Z,99.99
2018-02-16T07:00:51.857Z,99.99
2018-02-16T07:01:51.796Z,99.99
2018-02-16T07:02:51.756Z,99.99
2018-02-16T07:03:51.723Z,99.99
2018-02-16T07:04:51.692Z,99.99
2018-02-16T07:05:51.699Z,99.99
2018-02-16T07:06:51.628Z,99.99
2018-02-16T07:07:51.598Z,99.99
2018-02-16T07:08:51.570Z,99.99
2018-02-16T07:09:51.538Z,99.99
2018-02-16T07:10:51.540Z,99.99
2018-02-16T07:11:51.470Z,99.99
2018-02-16T07:12:51.444Z,99.99
2018-02-16T07:13:52.305Z,99.99
2018-02-16T07:14:51.390Z,99.99
2018-02-16T07:15:51.559Z,99.99
2018-02-16T07:16:51.311Z,99.99
2018-02-16T07:17:51.285Z,99.99
2018-02-16T07:18:51.248Z,99.99
2018-02-16T07:19:51.219Z,99.99
2018-02-16T07:20:51.212Z,99.99
2018-02-16T07:21:51.159Z,99.90
2018-02-16T07:22:51.123Z,99.62
2018-02-16T07:23:51.100Z,99.71
2018-02-16T07:24:51.092Z,99.62
2018-02-16T07:25:51.051Z,99.05
2018-02-16T07:26:50.998Z,98.58
2018-02-16T07:27:50.963Z,98.77
2018-02-16T07:28:50.939Z,99.19
2018-02-16T07:29:50.904Z,98.82
2018-02-16T07:30:50.895Z,98.34
2018-02-16T07:31:50.842Z,99.01
2018-02-16T07:32:50.807Z,98.72
2018-02-16T07:33:50.779Z,98.06
2018-02-16T07:34:50.748Z,97.77
2018-02-16T07:35:50.745Z,97.11
2018-02-16T07:36:50.684Z,97.11
2018-02-16T07:37:50.653Z,96.83
2018-02-16T07:38:50.625Z,96.92
2018-02-16T07:39:50.595Z,96.83
2018-02-16T07:40:50.587Z,96.26
2018-02-16T07:41:50.534Z,94.79
2018-02-16T07:42:50.497Z,95.21
2018-02-16T07:43:50.468Z,95.78
2018-02-16T07:44:50.440Z,95.69
2018-02-16T07:45:50.430Z,95.17
2018-02-16T07:46:50.393Z,95.74
2018-02-16T07:47:50.346Z,95.55
2018-02-16T07:48:50.320Z,94.70
2018-02-16T07:49:50.302Z,94.42
2018-02-16T07:50:50.279Z,94.42
2018-02-16T07:51:50.222Z,94.04
2018-02-16T07:52:50.197Z,94.13
2018-02-16T07:53:50.169Z,93.84
2018-02-16T07:54:50.134Z,93.84
2018-02-16T07:55:50.128Z,93.37
2018-02-16T07:56:50.070Z,93.37
2018-02-16T07:57:50.040Z,93.46
2018-02-16T07:58:50.009Z,93.65
2018-02-16T07:59:50.017Z,93.75
2018-02-16T08:00:49.973Z,93.65
2018-02-16T08:01:49.920Z,92.90
2018-02-16T08:02:49.891Z,92.61
2018-02-16T08:03:49.856Z,92.14
2018-02-16T08:04:49.826Z,92.14
2018-02-16T08:05:49.821Z,91.38
2018-02-16T08:06:49.769Z,91.14
2018-02-16T08:07:49.739Z,90.29
2018-02-16T08:08:49.705Z,90.48
2018-02-16T08:09:49.677Z,89.53
2018-02-16T08:10:49.685Z,89.82
2018-02-16T08:11:49.616Z,89.44
2018-02-16T08:12:49.593Z,88.68
2018-02-16T08:13:49.566Z,88.30
2018-02-16T08:14:49.538Z,87.73
2018-02-16T08:15:58.021Z,87.35
2018-02-16T08:16:49.470Z,86.31
2018-02-16T08:17:49.439Z,86.16
2018-02-16T08:18:49.407Z,85.50
2018-02-16T08:19:49.384Z,85.78
2018-02-16T08:20:49.380Z,84.84
2018-02-16T08:21:49.324Z,85.07
2018-02-16T08:22:49.293Z,84.12
2018-02-16T08:23:49.264Z,83.17
2018-02-16T08:24:49.240Z,82.42
2018-02-16T08:25:49.268Z,81.94
2018-02-16T08:26:49.187Z,81.37
2018-02-16T08:27:49.154Z,81.75
2018-02-16T08:28:49.133Z,80.90
2018-02-16T08:29:49.101Z,80.62
2018-02-16T08:30:49.123Z,80.04
2018-02-16T08:31:49.053Z,79.38
2018-02-16T08:32:49.021Z,79.42
2018-02-16T08:33:48.993Z,78.75
2018-02-16T08:34:48.965Z,78.75
2018-02-16T08:35:48.971Z,78.19
2018-02-16T08:36:48.916Z,78.09
2018-02-16T08:37:48.891Z,77.62
2018-02-16T08:38:48.877Z,77.24
2018-02-16T08:39:48.840Z,77.24
2018-02-16T08:40:48.927Z,76.01
2018-02-16T08:41:48.922Z,76.32
2018-02-16T08:42:48.777Z,75.28
2018-02-16T08:43:49.463Z,73.80
2018-02-16T08:44:49.463Z,71.62
2018-02-16T08:45:48.735Z,70.67
2018-02-16T08:46:48.781Z,70.99
2018-02-16T08:47:48.660Z,70.13
2018-02-16T08:48:48.848Z,68.55
2018-02-16T08:49:48.635Z,66.87
2018-02-16T08:50:48.614Z,65.92
2018-02-16T08:51:49.355Z,64.69
2018-02-16T08:52:49.486Z,63.45
2018-02-16T08:53:48.514Z,63.67
2018-02-16T08:54:48.587Z,62.46
2018-02-16T08:55:49.563Z,61.22
2018-02-16T08:56:48.550Z,60.85
2018-02-16T08:57:48.562Z,60.27
2018-02-16T08:58:48.396Z,60.18
2018-02-16T08:59:48.383Z,58.94
2018-02-16T09:00:48.407Z,59.03
2018-02-16T09:01:48.429Z,58.69
2018-02-16T09:02:48.345Z,58.08
2018-02-16T09:03:48.292Z,58.28
2018-02-16T09:04:48.296Z,57.89
2018-02-16T09:05:48.354Z,57.99
2018-02-16T09:06:49.998Z,58.18
2018-02-16T09:07:48.331Z,57.54
2018-02-16T09:08:48.192Z,57.26
2018-02-16T09:09:48.270Z,56.49
2018-02-16T09:10:48.177Z,56.21
2018-02-16T09:11:48.255Z,55.85
2018-02-16T09:12:48.207Z,56.04
2018-02-16T09:13:48.956Z,55.44
2018-02-16T09:14:48.104Z,55.16
2018-02-16T09:15:48.168Z,55.28
2018-02-16T09:16:48.096Z,55.28
2018-02-16T09:17:48.103Z,54.90
2018-02-16T09:18:47.973Z,54.90
2018-02-16T09:19:47.955Z,53.95
2018-02-16T09:20:48.011Z,54.14
2018-02-16T09:21:47.916Z,54.71
2018-02-16T09:22:47.953Z,54.43
2018-02-16T09:23:47.880Z,53.66
2018-02-16T09:24:47.884Z,53.47
2018-02-16T09:25:47.985Z,53.09
2018-02-16T09:26:47.834Z,53.19
2018-02-16T09:27:47.955Z,53.95
2018-02-16T09:28:47.793Z,54.83
2018-02-16T09:29:48.539Z,53.88
2018-02-16T09:30:49.025Z,53.97
2018-02-16T09:31:47.811Z,54.26
2018-02-16T09:32:48.449Z,54.14
2018-02-16T09:33:47.758Z,53.59
2018-02-16T09:34:49.040Z,53.02
2018-02-16T09:35:47.700Z,52.23
2018-02-16T09:36:47.654Z,53.28
2018-02-16T09:37:47.603Z,53.09
2018-02-16T09:38:47.593Z,53.00
2018-02-16T09:39:47.611Z,53.28
2018-02-16T09:40:47.689Z,54.43
2018-02-16T09:41:47.523Z,54.26
2018-02-16T09:42:48.436Z,53.59
2018-02-16T09:43:47.513Z,53.09
2018-02-16T09:44:47.537Z,54.43
2018-02-16T09:45:47.445Z,53.00
2018-02-16T09:46:47.429Z,53.78
2018-02-16T09:47:48.440Z,53.38
2018-02-16T09:48:47.947Z,53.50
2018-02-16T09:49:48.047Z,52.95
2018-02-16T09:50:47.347Z,52.16
2018-02-16T09:51:48.034Z,52.42
2018-02-16T09:52:47.984Z,54.71
2018-02-16T09:53:47.303Z,54.43
2018-02-16T09:54:47.304Z,53.85
2018-02-16T09:55:47.345Z,54.61
2018-02-16T09:56:47.235Z,54.94
2018-02-16T09:57:47.356Z,55.80
2018-02-16T09:58:47.869Z,55.44
2018-02-16T09:59:47.227Z,55.16
2018-02-16T10:00:47.210Z,54.78
2018-02-16T10:01:47.140Z,54.78
2018-02-16T10:02:47.125Z,55.09
2018-02-16T10:03:47.099Z,54.59
2018-02-16T10:04:47.078Z,55.00
2018-02-16T10:05:47.086Z,54.61
2018-02-16T10:06:47.061Z,54.61
2018-02-16T10:07:47.024Z,55.28
2018-02-16T10:08:47.002Z,55.28
2018-02-16T10:09:46.979Z,54.52
2018-02-16T10:10:46.990Z,54.55
2018-02-16T10:11:46.944Z,54.07
2018-02-16T10:12:46.968Z,52.73
2018-02-16T10:13:46.934Z,53.47
2018-02-16T10:14:46.890Z,54.61
2018-02-16T10:15:47.489Z,54.43
2018-02-16T10:16:46.877Z,55.00
2018-02-16T10:17:46.827Z,55.02
2018-02-16T10:18:46.809Z,54.93
2018-02-16T10:19:46.791Z,54.00
2018-02-16T10:20:46.767Z,52.98
2018-02-16T10:21:46.785Z,51.62
2018-02-16T10:22:46.740Z,53.53
2018-02-16T10:23:46.716Z,54.67
2018-02-16T10:24:46.698Z,54.36
2018-02-16T10:25:46.710Z,55.54
2018-02-16T10:26:46.685Z,57.42
2018-02-16T10:27:46.655Z,59.96
2018-02-16T10:28:46.623Z,60.56
2018-02-16T10:29:46.605Z,60.18
2018-02-16T10:30:46.612Z,59.06
2018-02-16T10:31:46.574Z,57.92
2018-02-16T10:32:46.550Z,57.95
2018-02-16T10:33:46.526Z,57.73
2018-02-16T10:34:46.510Z,58.02
2018-02-16T10:35:46.512Z,58.11
2018-02-16T10:36:46.468Z,58.97
2018-02-16T10:37:46.455Z,58.52
2018-02-16T10:38:46.436Z,58.14
2018-02-16T10:39:46.413Z,58.04
2018-02-16T10:40:46.426Z,57.76
2018-02-16T10:41:46.384Z,58.72
2018-02-16T10:42:46.364Z,57.92
2018-02-16T10:43:46.336Z,58.40
2018-02-16T10:44:46.316Z,58.87
2018-02-16T10:45:46.330Z,59.42
2018-02-16T10:46:46.279Z,60.56
2018-02-16T10:47:46.276Z,61.22
2018-02-16T10:48:46.243Z,60.75
2018-02-16T10:49:46.232Z,61.25
2018-02-16T10:50:46.227Z,60.33
2018-02-16T10:51:46.520Z,58.97
2018-02-16T10:52:46.167Z,58.24
2018-02-16T10:53:46.148Z,58.87
2018-02-16T10:54:46.130Z,59.45
2018-02-16T10:55:46.105Z,60.24
2018-02-16T10:56:46.119Z,59.48
2018-02-16T10:57:46.080Z,59.26
2018-02-16T10:58:46.050Z,59.45
2018-02-16T10:59:46.087Z,60.30
2018-02-16T11:00:46.040Z,60.11
2018-02-16T11:01:46.007Z,60.02
2018-02-16T11:02:45.979Z,60.69
2018-02-16T11:03:45.965Z,59.99
2018-02-16T11:04:45.940Z,61.25
2018-02-16T11:05:45.944Z,60.69
2018-02-16T11:06:45.898Z,60.05
2018-02-16T11:07:45.876Z,59.74
2018-02-16T11:08:45.858Z,60.11
2018-02-16T11:09:45.844Z,59.92
2018-02-16T11:10:45.851Z,59.76
2018-02-16T11:11:45.825Z,59.12
2018-02-16T11:12:45.793Z,57.03
2018-02-16T11:13:45.779Z,56.93
2018-02-16T11:14:45.743Z,57.41
2018-02-16T11:15:45.753Z,56.77
2018-02-16T11:16:45.750Z,56.26
2018-02-16T11:17:45.697Z,56.65
2018-02-16T11:18:45.736Z,56.33
2018-02-16T11:19:45.674Z,56.90
2018-02-16T11:20:45.648Z,56.84
2018-02-16T11:21:45.649Z,56.90
2018-02-16T11:22:45.607Z,57.95
2018-02-16T11:23:45.612Z,57.48
2018-02-16T11:24:45.569Z,57.98
2018-02-16T11:25:45.578Z,57.50
2018-02-16T11:26:45.538Z,57.50
2018-02-16T11:27:45.526Z,56.48
2018-02-16T11:28:45.497Z,55.27
2018-02-16T11:29:45.491Z,53.67
2018-02-16T11:30:45.498Z,52.98
2018-02-16T11:31:45.487Z,53.53
2018-02-16T11:32:45.437Z,54.10
2018-02-16T11:33:45.411Z,54.60
2018-02-16T11:34:45.398Z,53.84
2018-02-16T11:35:45.383Z,53.49
2018-02-16T11:36:45.385Z,53.77
2018-02-16T11:37:45.342Z,53.84
2018-02-16T11:38:45.342Z,54.32
2018-02-16T11:39:45.319Z,53.39
2018-02-16T11:40:45.296Z,52.43
2018-02-16T11:41:45.312Z,52.81
2018-02-16T11:42:45.265Z,52.36
2018-02-16T11:43:45.267Z,51.91
2018-02-16T11:44:45.244Z,49.84
2018-02-16T11:45:45.254Z,49.23
2018-02-16T11:46:45.204Z,49.59
2018-02-16T11:47:45.192Z,49.71
2018-02-16T11:48:45.193Z,49.83
2018-02-16T11:49:45.160Z,53.21
2018-02-16T11:50:45.167Z,55.85
2018-02-16T11:51:45.161Z,58.40
2018-02-16T11:52:45.119Z,60.27
2018-02-16T11:53:45.100Z,61.42
2018-02-16T11:54:45.078Z,60.37
2018-02-16T11:55:45.064Z,61.51
2018-02-16T11:56:45.073Z,61.25
2018-02-16T11:57:45.031Z,60.30
2018-02-16T11:58:45.057Z,60.81
2018-02-16T11:59:45.009Z,59.48
2018-02-16T12:00:45.006Z,58.75
2018-02-16T12:01:44.997Z,56.96
2018-02-16T12:02:45.971Z,55.84
2018-02-16T12:03:44.946Z,54.89
2018-02-16T12:04:45.022Z,53.65
2018-02-16T12:05:45.479Z,53.65
2018-02-16T12:06:44.966Z,54.89
2018-02-16T12:07:44.951Z,54.50
2018-02-16T12:08:44.976Z,54.15
2018-02-16T12:09:44.939Z,52.94
2018-02-16T12:10:44.889Z,53.20
2018-02-16T12:11:44.839Z,53.45
2018-02-16T12:12:44.807Z,53.49
2018-02-16T12:13:45.423Z,54.50
2018-02-16T12:14:44.840Z,55.34
2018-02-16T12:15:44.904Z,57.31
2018-02-16T12:16:44.839Z,59.00
2018-02-16T12:17:44.781Z,60.05
2018-02-16T12:18:44.775Z,61.00
2018-02-16T12:19:45.411Z,60.81
2018-02-16T12:20:44.757Z,60.91
2018-02-16T12:21:44.687Z,60.91
2018-02-16T12:22:44.642Z,59.89
2018-02-16T12:23:44.634Z,59.22
2018-02-16T12:24:44.648Z,59.99
2018-02-16T12:25:44.661Z,59.60
2018-02-16T12:26:44.665Z,60.24
2018-02-16T12:27:44.552Z,59.22
2018-02-16T12:28:46.091Z,58.94
2018-02-16T12:29:44.577Z,58.36
2018-02-16T12:30:44.479Z,57.53
2018-02-16T12:31:44.587Z,56.63
2018-02-16T12:32:44.432Z,55.20
2018-02-16T12:33:44.414Z,54.66
2018-02-16T12:34:44.396Z,54.30
2018-02-16T12:35:44.380Z,51.43
2018-02-16T12:36:44.394Z,50.31
2018-02-16T12:37:44.341Z,51.65
2018-02-16T12:38:44.332Z,49.16
2018-02-16T12:39:44.309Z,49.26
2018-02-16T12:40:44.307Z,50.74
2018-02-16T12:41:44.312Z,52.91
2018-02-16T12:42:44.271Z,54.00
2018-02-16T12:43:44.253Z,56.46
2018-02-16T12:44:44.244Z,58.59
2018-02-16T12:45:44.248Z,59.74
2018-02-16T12:46:44.204Z,61.13
2018-02-16T12:47:44.185Z,61.61
2018-02-16T12:48:44.174Z,60.88
2018-02-16T12:49:44.144Z,59.76
2018-02-16T12:50:44.166Z,58.07
2018-02-16T12:51:44.149Z,57.22